Aviation Digital Data Service (ADDS)

Output produced by METARs form (0322 UTC 20 March 2019)
found at http://www.aviationweather.gov/metar/data/
 
METAR text: EETN 200320Z 26013KT 9999 OVC013 M00/M02 Q1019 R08/290195
Conditions at: EETN (TALLINN , EE) observed 0320 UTC 20 March 2019
Temperature: 0.0°C (32°F)
Dewpoint: -2.0°C (28°F) [RH = 86%]
Pressure (altimeter): 30.09 inches Hg (1019.0 mb)
Winds: from the W (260 degrees) at 15 MPH (13 knots; 6.7 m/s)
Visibility: 6 or more miles (10+ km)
Ceiling: 1300 feet AGL
Clouds: overcast cloud deck at 1300 feet AGL
Weather: no significant weather observed at this time

METAR text: EETN 200250Z 26014KT 9999 OVC013 M00/M02 Q1019 R08/290195
Conditions at: EETN (TALLINN , EE) observed 0250 UTC 20 March 2019
Temperature: 0.0°C (32°F)
Dewpoint: -2.0°C (28°F) [RH = 86%]
Pressure (altimeter): 30.09 inches Hg (1019.0 mb)
Winds: from the W (260 degrees) at 16 MPH (14 knots; 7.2 m/s)
Visibility: 6 or more miles (10+ km)
Ceiling: 1300 feet AGL
Clouds: overcast cloud deck at 1300 feet AGL
Weather: no significant weather observed at this time

METAR text: EETN 200220Z 27014KT 8000 -SHSN SCT008 BKN013 SCT017CB M00/M01 Q1019 RESHSN R08/290195
Conditions at: EETN (TALLINN , EE) observed 0220 UTC 20 March 2019
Temperature: 0.0°C (32°F)
Dewpoint: -1.0°C (30°F) [RH = 93%]
Pressure (altimeter): 30.09 inches Hg (1019.0 mb)
Winds: from the W (270 degrees) at 16 MPH (14 knots; 7.2 m/s)
Visibility: 5 miles ( 8 km)
Ceiling: 1300 feet AGL
Clouds: scattered clouds at 800 feet AGL
broken clouds at 1300 feet AGL
scattered clouds at 1700 feet AGL
Weather: -SHSN  (light snow showers)

METAR text: EETN 200150Z 26010KT 8000 -SHSNRA BKN009 FEW016CB BKN019 M00/M01 Q1019 R08/290195
Conditions at: EETN (TALLINN , EE) observed 0150 UTC 20 March 2019
Temperature: 0.0°C (32°F)
Dewpoint: -1.0°C (30°F) [RH = 93%]
Pressure (altimeter): 30.09 inches Hg (1019.0 mb)
Winds: from the W (260 degrees) at 12 MPH (10 knots; 5.1 m/s)
Visibility: 5 miles ( 8 km)
Ceiling: 900 feet AGL
Clouds: broken clouds at 900 feet AGL
few clouds at 1600 feet AGL
broken clouds at 1900 feet AGL
Weather: -SHSN -SHRA  (light snow showers, light rain showers)

METAR text: EETN 200120Z 27010KT 9999 BKN010 OVC016 00/M01 Q1019 R08/290195
Conditions at: EETN (TALLINN , EE) observed 0120 UTC 20 March 2019
Temperature: 0.0°C (32°F)
Dewpoint: -1.0°C (30°F) [RH = 93%]
Pressure (altimeter): 30.09 inches Hg (1019.0 mb)
Winds: from the W (270 degrees) at 12 MPH (10 knots; 5.1 m/s)
Visibility: 6 or more miles (10+ km)
Ceiling: 1000 feet AGL
Clouds: broken clouds at 1000 feet AGL
overcast cloud deck at 1600 feet AGL
Weather: no significant weather observed at this time

METAR text: EETN 200050Z 27011KT 9999 OVC010 00/M01 Q1018 R08/290195
Conditions at: EETN (TALLINN , EE) observed 0050 UTC 20 March 2019
Temperature: 0.0°C (32°F)
Dewpoint: -1.0°C (30°F) [RH = 93%]
Pressure (altimeter): 30.06 inches Hg (1018.0 mb)
Winds: from the W (270 degrees) at 13 MPH (11 knots; 5.7 m/s)
Visibility: 6 or more miles (10+ km)
Ceiling: 1000 feet AGL
Clouds: overcast cloud deck at 1000 feet AGL
Weather: no significant weather observed at this time

METAR text: EETN 200020Z 29012KT 9999 OVC009 01/M01 Q1018 R08/290195
Conditions at: EETN (TALLINN , EE) observed 0020 UTC 20 March 2019
Temperature: 1.0°C (34°F)
Dewpoint: -1.0°C (30°F) [RH = 86%]
Pressure (altimeter): 30.06 inches Hg (1018.0 mb)
Winds: from the WNW (290 degrees) at 14 MPH (12 knots; 6.2 m/s)
Visibility: 6 or more miles (10+ km)
Ceiling: 900 feet AGL
Clouds: overcast cloud deck at 900 feet AGL
Weather: no significant weather observed at this time

METAR text: EETN 192350Z 28013KT 9999 OVC009 01/M01 Q1018 R08/290195
Conditions at: EETN (TALLINN , EE) observed 2350 UTC 19 March 2019
Temperature: 1.0°C (34°F)
Dewpoint: -1.0°C (30°F) [RH = 86%]
Pressure (altimeter): 30.06 inches Hg (1018.0 mb)
Winds: from the W (280 degrees) at 15 MPH (13 knots; 6.7 m/s)
Visibility: 6 or more miles (10+ km)
Ceiling: 900 feet AGL
Clouds: overcast cloud deck at 900 feet AGL
Weather: no significant weather observed at this time

METAR text: EETN 192320Z 29014KT 9999 BKN008 OVC011 01/M00 Q1018 R08/290195
Conditions at: EETN (TALLINN , EE) observed 2320 UTC 19 March 2019
Temperature: 1.0°C (34°F)
Dewpoint: 0.0°C (32°F) [RH = 93%]
Pressure (altimeter): 30.06 inches Hg (1018.0 mb)
Winds: from the WNW (290 degrees) at 16 MPH (14 knots; 7.2 m/s)
Visibility: 6 or more miles (10+ km)
Ceiling: 800 feet AGL
Clouds: broken clouds at 800 feet AGL
overcast cloud deck at 1100 feet AGL
Weather: no significant weather observed at this time

METAR text: EETN 192250Z 29013KT 9999 OVC012 01/M01 Q1018 R08/290195
Conditions at: EETN (TALLINN , EE) observed 2250 UTC 19 March 2019
Temperature: 1.0°C (34°F)
Dewpoint: -1.0°C (30°F) [RH = 86%]
Pressure (altimeter): 30.06 inches Hg (1018.0 mb)
Winds: from the WNW (290 degrees) at 15 MPH (13 knots; 6.7 m/s)
Visibility: 6 or more miles (10+ km)
Ceiling: 1200 feet AGL
Clouds: overcast cloud deck at 1200 feet AGL
Weather: no significant weather observed at this time

METAR text: EETN 192220Z 29013KT 9999 OVC011 01/M01 Q1017 R08/290195
Conditions at: EETN (TALLINN , EE) observed 2220 UTC 19 March 2019
Temperature: 1.0°C (34°F)
Dewpoint: -1.0°C (30°F) [RH = 86%]
Pressure (altimeter): 30.03 inches Hg (1017.0 mb)
Winds: from the WNW (290 degrees) at 15 MPH (13 knots; 6.7 m/s)
Visibility: 6 or more miles (10+ km)
Ceiling: 1100 feet AGL
Clouds: overcast cloud deck at 1100 feet AGL
Weather: no significant weather observed at this time

METAR text: EETN 192150Z 28010KT 9999 OVC010 01/M00 Q1017 R08/290195 NOSIG
Conditions at: EETN (TALLINN , EE) observed 2150 UTC 19 March 2019
Temperature: 1.0°C (34°F)
Dewpoint: 0.0°C (32°F) [RH = 93%]
Pressure (altimeter): 30.03 inches Hg (1017.0 mb)
Winds: from the W (280 degrees) at 12 MPH (10 knots; 5.1 m/s)
Visibility: 6 or more miles (10+ km)
Ceiling: 1000 feet AGL
Clouds: overcast cloud deck at 1000 feet AGL
Weather: no significant weather observed at this time

METAR text: EETN 192120Z 29011KT 9999 OVC009 01/00 Q1017 R08/290195 NOSIG
Conditions at: EETN (TALLINN , EE) observed 2120 UTC 19 March 2019
Temperature: 1.0°C (34°F)
Dewpoint: 0.0°C (32°F) [RH = 93%]
Pressure (altimeter): 30.03 inches Hg (1017.0 mb)
Winds: from the WNW (290 degrees) at 13 MPH (11 knots; 5.7 m/s)
Visibility: 6 or more miles (10+ km)
Ceiling: 900 feet AGL
Clouds: overcast cloud deck at 900 feet AGL
Weather: no significant weather observed at this time

METAR text: EETN 192050Z 29011KT 9999 OVC009 02/00 Q1016 R08/290195 NOSIG
Conditions at: EETN (TALLINN , EE) observed 2050 UTC 19 March 2019
Temperature: 2.0°C (36°F)
Dewpoint: 0.0°C (32°F) [RH = 87%]
Pressure (altimeter): 30.00 inches Hg (1016.0 mb)
Winds: from the WNW (290 degrees) at 13 MPH (11 knots; 5.7 m/s)
Visibility: 6 or more miles (10+ km)
Ceiling: 900 feet AGL
Clouds: overcast cloud deck at 900 feet AGL
Weather: no significant weather observed at this time

METAR text: EETN 192020Z 30010KT 9999 OVC009 02/00 Q1016 R08/290195 NOSIG
Conditions at: EETN (TALLINN , EE) observed 2020 UTC 19 March 2019
Temperature: 2.0°C (36°F)
Dewpoint: 0.0°C (32°F) [RH = 87%]
Pressure (altimeter): 30.00 inches Hg (1016.0 mb)
Winds: from the WNW (300 degrees) at 12 MPH (10 knots; 5.1 m/s)
Visibility: 6 or more miles (10+ km)
Ceiling: 900 feet AGL
Clouds: overcast cloud deck at 900 feet AGL
Weather: no significant weather observed at this time

METAR text: EETN 191950Z 30010KT 9999 OVC007 02/00 Q1015 R08/290195 NOSIG
Conditions at: EETN (TALLINN , EE) observed 1950 UTC 19 March 2019
Temperature: 2.0°C (36°F)
Dewpoint: 0.0°C (32°F) [RH = 87%]
Pressure (altimeter): 29.97 inches Hg (1015.0 mb)
Winds: from the WNW (300 degrees) at 12 MPH (10 knots; 5.1 m/s)
Visibility: 6 or more miles (10+ km)
Ceiling: 700 feet AGL
Clouds: overcast cloud deck at 700 feet AGL
Weather: no significant weather observed at this time

METAR text: EETN 191920Z 30010KT 9999 OVC008 02/01 Q1015 R08/290195 NOSIG
Conditions at: EETN (TALLINN , EE) observed 1920 UTC 19 March 2019
Temperature: 2.0°C (36°F)
Dewpoint: 1.0°C (34°F) [RH = 93%]
Pressure (altimeter): 29.97 inches Hg (1015.0 mb)
Winds: from the WNW (300 degrees) at 12 MPH (10 knots; 5.1 m/s)
Visibility: 6 or more miles (10+ km)
Ceiling: 800 feet AGL
Clouds: overcast cloud deck at 800 feet AGL
Weather: no significant weather observed at this time

METAR text: EETN 191850Z 29011KT 9999 OVC007 02/01 Q1015 R08/290195 NOSIG
Conditions at: EETN (TALLINN , EE) observed 1850 UTC 19 March 2019
Temperature: 2.0°C (36°F)
Dewpoint: 1.0°C (34°F) [RH = 93%]
Pressure (altimeter): 29.97 inches Hg (1015.0 mb)
Winds: from the WNW (290 degrees) at 13 MPH (11 knots; 5.7 m/s)
Visibility: 6 or more miles (10+ km)
Ceiling: 700 feet AGL
Clouds: overcast cloud deck at 700 feet AGL
Weather: no significant weather observed at this time

METAR text: EETN 191820Z 30010KT 9999 OVC008 02/01 Q1014 R08/290195 NOSIG
Conditions at: EETN (TALLINN , EE) observed 1820 UTC 19 March 2019
Temperature: 2.0°C (36°F)
Dewpoint: 1.0°C (34°F) [RH = 93%]
Pressure (altimeter): 29.94 inches Hg (1014.0 mb)
Winds: from the WNW (300 degrees) at 12 MPH (10 knots; 5.1 m/s)
Visibility: 6 or more miles (10+ km)
Ceiling: 800 feet AGL
Clouds: overcast cloud deck at 800 feet AGL
Weather: no significant weather observed at this time

METAR text: EETN 191750Z 30010KT 9999 BKN007 OVC011 02/01 Q1014 R08/290195 NOSIG
Conditions at: EETN (TALLINN , EE) observed 1750 UTC 19 March 2019
Temperature: 2.0°C (36°F)
Dewpoint: 1.0°C (34°F) [RH = 93%]
Pressure (altimeter): 29.94 inches Hg (1014.0 mb)
Winds: from the WNW (300 degrees) at 12 MPH (10 knots; 5.1 m/s)
Visibility: 6 or more miles (10+ km)
Ceiling: 700 feet AGL
Clouds: broken clouds at 700 feet AGL
overcast cloud deck at 1100 feet AGL
Weather: no significant weather observed at this time

METAR text: EETN 191720Z 29011KT 9000 -RADZ OVC005 02/01 Q1013 R08/290195 NOSIG
Conditions at: EETN (TALLINN , EE) observed 1720 UTC 19 March 2019
Temperature: 2.0°C (36°F)
Dewpoint: 1.0°C (34°F) [RH = 93%]
Pressure (altimeter): 29.91 inches Hg (1013.0 mb)
Winds: from the WNW (290 degrees) at 13 MPH (11 knots; 5.7 m/s)
Visibility: 6 miles ( 9 km)
Ceiling: 500 feet AGL
Clouds: overcast cloud deck at 500 feet AGL
Weather: -RA -DZ  (light rain, light drizzle)

METAR text: EETN 191650Z 29011KT 8000 -RA OVC004 02/02 Q1013 R08/290195 NOSIG
Conditions at: EETN (TALLINN , EE) observed 1650 UTC 19 March 2019
Temperature: 2.0°C (36°F)
Dewpoint: 2.0°C (36°F) [RH = 100%]
Pressure (altimeter): 29.91 inches Hg (1013.0 mb)
Winds: from the WNW (290 degrees) at 13 MPH (11 knots; 5.7 m/s)
Visibility: 5 miles ( 8 km)
Ceiling: 400 feet AGL
Clouds: overcast cloud deck at 400 feet AGL
Weather: -RA  (light rain)

METAR text: EETN 191620Z 29009KT 9999 -RA OVC004 02/02 Q1012 R08/290195 NOSIG
Conditions at: EETN (TALLINN , EE) observed 1620 UTC 19 March 2019
Temperature: 2.0°C (36°F)
Dewpoint: 2.0°C (36°F) [RH = 100%]
Pressure (altimeter): 29.88 inches Hg (1012.0 mb)
Winds: from the WNW (290 degrees) at 10 MPH (9 knots; 4.6 m/s)
Visibility: 6 or more miles (10+ km)
Ceiling: 400 feet AGL
Clouds: overcast cloud deck at 400 feet AGL
Weather: -RA  (light rain)

METAR text: EETN 191550Z 28007KT 8000 -RADZ OVC005 02/01 Q1012 R08/290195 NOSIG
Conditions at: EETN (TALLINN , EE) observed 1550 UTC 19 March 2019
Temperature: 2.0°C (36°F)
Dewpoint: 1.0°C (34°F) [RH = 93%]
Pressure (altimeter): 29.88 inches Hg (1012.0 mb)
Winds: from the W (280 degrees) at 8 MPH (7 knots; 3.6 m/s)
Visibility: 5 miles ( 8 km)
Ceiling: 500 feet AGL
Clouds: overcast cloud deck at 500 feet AGL
Weather: -RA -DZ  (light rain, light drizzle)

METAR text: EETN 191520Z 29008KT 6000 DZ OVC005 02/01 Q1011 R08/290195 NOSIG
Conditions at: EETN (TALLINN , EE) observed 1520 UTC 19 March 2019
Temperature: 2.0°C (36°F)
Dewpoint: 1.0°C (34°F) [RH = 93%]
Pressure (altimeter): 29.85 inches Hg (1011.0 mb)
Winds: from the WNW (290 degrees) at 9 MPH (8 knots; 4.1 m/s)
Visibility: 4 miles ( 6 km)
Ceiling: 500 feet AGL
Clouds: overcast cloud deck at 500 feet AGL
Weather: DZ  (moderate drizzle)

METAR text: EETN 191450Z 29009KT 4500 DZ BR OVC004 02/02 Q1011 R08/290195 NOSIG
Conditions at: EETN (TALLINN , EE) observed 1450 UTC 19 March 2019
Temperature: 2.0°C (36°F)
Dewpoint: 2.0°C (36°F) [RH = 100%]
Pressure (altimeter): 29.85 inches Hg (1011.0 mb)
Winds: from the WNW (290 degrees) at 10 MPH (9 knots; 4.6 m/s)
Visibility: 2.80 miles (4.51 km)
Ceiling: 400 feet AGL
Clouds: overcast cloud deck at 400 feet AGL
Weather: DZ BR  (moderate drizzle, mist)

METAR text: EETN 191420Z 30008KT 9999 BKN003 OVC008 02/02 Q1010 R08/290195 NOSIG
Conditions at: EETN (TALLINN , EE) observed 1420 UTC 19 March 2019
Temperature: 2.0°C (36°F)
Dewpoint: 2.0°C (36°F) [RH = 100%]
Pressure (altimeter): 29.82 inches Hg (1010.0 mb)
Winds: from the WNW (300 degrees) at 9 MPH (8 knots; 4.1 m/s)
Visibility: 6 or more miles (10+ km)
Ceiling: 300 feet AGL
Clouds: broken clouds at 300 feet AGL
overcast cloud deck at 800 feet AGL
Weather: no significant weather observed at this time

METAR text: EETN 191350Z 30008KT 9999 3400E BR BCFG SCT002 OVC005 02/02 Q1010 R08/290195 TEMPO 2000
Conditions at: EETN (TALLINN , EE) observed 1350 UTC 19 March 2019
Temperature: 2.0°C (36°F)
Dewpoint: 2.0°C (36°F) [RH = 100%]
Pressure (altimeter): 29.82 inches Hg (1010.0 mb)
Winds: from the WNW (300 degrees) at 9 MPH (8 knots; 4.1 m/s)
Visibility: 6 or more miles (10+ km)
Ceiling: 500 feet AGL
Clouds: scattered clouds at 200 feet AGL
overcast cloud deck at 500 feet AGL
Weather: BCFG BR  (patches of fog, mist)

METAR text: EETN 191320Z 31007KT 290V350 1900 0600E R26/1500D DZ BR BCFG BKN002 BKN006 02/02 Q1009 R08/290195 BECMG 2000
Conditions at: EETN (TALLINN , EE) observed 1320 UTC 19 March 2019
Temperature: 2.0°C (36°F)
Dewpoint: 2.0°C (36°F) [RH = 100%]
Pressure (altimeter): 29.79 inches Hg (1009.0 mb)
Winds: from the NW (310 degrees) at 8 MPH (7 knots; 3.6 m/s)
Visibility: 1.18 miles (1.90 km)
Ceiling: 200 feet AGL
Clouds: broken clouds at 200 feet AGL
broken clouds at 600 feet AGL
Weather: BCFG DZ BR  (patches of fog, moderate drizzle, mist)

METAR text: EETN 191250Z 28006KT 230V320 4500 -DZ BR OVC003 03/02 Q1009 REDZ R08/290195 TEMPO 1000
Conditions at: EETN (TALLINN , EE) observed 1250 UTC 19 March 2019
Temperature: 3.0°C (37°F)
Dewpoint: 2.0°C (36°F) [RH = 93%]
Pressure (altimeter): 29.79 inches Hg (1009.0 mb)
Winds: from the W (280 degrees) at 7 MPH (6 knots; 3.1 m/s)
Visibility: 2.80 miles (4.51 km)
Ceiling: 300 feet AGL
Clouds: overcast cloud deck at 300 feet AGL
Weather: -DZ BR  (light drizzle, mist)

METAR text: EETN 191220Z 25005KT 3600 -DZ BR OVC005 03/02 Q1008 R08/290195 TEMPO 2000 OVC003
Conditions at: EETN (TALLINN , EE) observed 1220 UTC 19 March 2019
Temperature: 3.0°C (37°F)
Dewpoint: 2.0°C (36°F) [RH = 93%]
Pressure (altimeter): 29.76 inches Hg (1008.0 mb)
Winds: from the WSW (250 degrees) at 6 MPH (5 knots; 2.6 m/s)
Visibility: 2.24 miles (3.60 km)
Ceiling: 500 feet AGL
Clouds: overcast cloud deck at 500 feet AGL
Weather: -DZ BR  (light drizzle, mist)

METAR text: EETN 191150Z 21003KT 7000 -DZ OVC006 03/02 Q1008 R08/290195 TEMPO 2000 BR BKN003
Conditions at: EETN (TALLINN , EE) observed 1150 UTC 19 March 2019
Temperature: 3.0°C (37°F)
Dewpoint: 2.0°C (36°F) [RH = 93%]
Pressure (altimeter): 29.76 inches Hg (1008.0 mb)
Winds: from the SSW (210 degrees) at 3 MPH (3 knots; 1.5 m/s)
Visibility: 4 miles ( 7 km)
Ceiling: 600 feet AGL
Clouds: overcast cloud deck at 600 feet AGL
Weather: -DZ  (light drizzle)

METAR text: EETN 191120Z 20004KT 8000 -RADZ BKN005 OVC011 03/02 Q1008 R08/290195 TEMPO 2000 BR BKN003
Conditions at: EETN (TALLINN , EE) observed 1120 UTC 19 March 2019
Temperature: 3.0°C (37°F)
Dewpoint: 2.0°C (36°F) [RH = 93%]
Pressure (altimeter): 29.76 inches Hg (1008.0 mb)
Winds: from the SSW (200 degrees) at 5 MPH (4 knots; 2.1 m/s)
Visibility: 5 miles ( 8 km)
Ceiling: 500 feet AGL
Clouds: broken clouds at 500 feet AGL
overcast cloud deck at 1100 feet AGL
Weather: -RA -DZ  (light rain, light drizzle)

METAR text: EETN 191050Z 21006KT 9000 -RA BKN005 OVC014 03/02 Q1008 R08/290195 NOSIG
Conditions at: EETN (TALLINN , EE) observed 1050 UTC 19 March 2019
Temperature: 3.0°C (37°F)
Dewpoint: 2.0°C (36°F) [RH = 93%]
Pressure (altimeter): 29.76 inches Hg (1008.0 mb)
Winds: from the SSW (210 degrees) at 7 MPH (6 knots; 3.1 m/s)
Visibility: 6 miles ( 9 km)
Ceiling: 500 feet AGL
Clouds: broken clouds at 500 feet AGL
overcast cloud deck at 1400 feet AGL
Weather: -RA  (light rain)

METAR text: EETN 191020Z 21006KT 9000 -RA BKN006 OVC014 02/01 Q1007 R08/290195 NOSIG
Conditions at: EETN (TALLINN , EE) observed 1020 UTC 19 March 2019
Temperature: 2.0°C (36°F)
Dewpoint: 1.0°C (34°F) [RH = 93%]
Pressure (altimeter): 29.73 inches Hg (1007.0 mb)
Winds: from the SSW (210 degrees) at 7 MPH (6 knots; 3.1 m/s)
Visibility: 6 miles ( 9 km)
Ceiling: 600 feet AGL
Clouds: broken clouds at 600 feet AGL
overcast cloud deck at 1400 feet AGL
Weather: -RA  (light rain)

METAR text: EETN 190950Z 22007KT 9000 -RA OVC006 02/02 Q1007 R08/290195 TEMPO 4000 RA
Conditions at: EETN (TALLINN , EE) observed 0950 UTC 19 March 2019
Temperature: 2.0°C (36°F)
Dewpoint: 2.0°C (36°F) [RH = 100%]
Pressure (altimeter): 29.73 inches Hg (1007.0 mb)
Winds: from the SW (220 degrees) at 8 MPH (7 knots; 3.6 m/s)
Visibility: 6 miles ( 9 km)
Ceiling: 600 feet AGL
Clouds: overcast cloud deck at 600 feet AGL
Weather: -RA  (light rain)

METAR text: EETN 190920Z 22006KT 7000 -RADZ OVC007 02/01 Q1006 R08/290195 TEMPO 4000 RA
Conditions at: EETN (TALLINN , EE) observed 0920 UTC 19 March 2019
Temperature: 2.0°C (36°F)
Dewpoint: 1.0°C (34°F) [RH = 93%]
Pressure (altimeter): 29.70 inches Hg (1006.0 mb)
Winds: from the SW (220 degrees) at 7 MPH (6 knots; 3.1 m/s)
Visibility: 4 miles ( 7 km)
Ceiling: 700 feet AGL
Clouds: overcast cloud deck at 700 feet AGL
Weather: -RA -DZ  (light rain, light drizzle)

METAR text: EETN 190850Z 21007KT 9000 -RADZ OVC007 02/01 Q1006 R08/290195 TEMPO 4000 RA
Conditions at: EETN (TALLINN , EE) observed 0850 UTC 19 March 2019
Temperature: 2.0°C (36°F)
Dewpoint: 1.0°C (34°F) [RH = 93%]
Pressure (altimeter): 29.70 inches Hg (1006.0 mb)
Winds: from the SSW (210 degrees) at 8 MPH (7 knots; 3.6 m/s)
Visibility: 6 miles ( 9 km)
Ceiling: 700 feet AGL
Clouds: overcast cloud deck at 700 feet AGL
Weather: -RA -DZ  (light rain, light drizzle)

METAR text: EETN 190820Z 21008KT 9999 OVC008 02/01 Q1006 R08/290195 NOSIG
Conditions at: EETN (TALLINN , EE) observed 0820 UTC 19 March 2019
Temperature: 2.0°C (36°F)
Dewpoint: 1.0°C (34°F) [RH = 93%]
Pressure (altimeter): 29.70 inches Hg (1006.0 mb)
Winds: from the SSW (210 degrees) at 9 MPH (8 knots; 4.1 m/s)
Visibility: 6 or more miles (10+ km)
Ceiling: 800 feet AGL
Clouds: overcast cloud deck at 800 feet AGL
Weather: no significant weather observed at this time

METAR text: EETN 190750Z 21007KT 9999 OVC008 02/01 Q1005 R08/290195 NOSIG
Conditions at: EETN (TALLINN , EE) observed 0750 UTC 19 March 2019
Temperature: 2.0°C (36°F)
Dewpoint: 1.0°C (34°F) [RH = 93%]
Pressure (altimeter): 29.68 inches Hg (1005.0 mb)
Winds: from the SSW (210 degrees) at 8 MPH (7 knots; 3.6 m/s)
Visibility: 6 or more miles (10+ km)
Ceiling: 800 feet AGL
Clouds: overcast cloud deck at 800 feet AGL
Weather: no significant weather observed at this time

METAR text: EETN 190720Z 19007KT 9999 -RA OVC006 02/01 Q1005 R08/290195 NOSIG
Conditions at: EETN (TALLINN , EE) observed 0720 UTC 19 March 2019
Temperature: 2.0°C (36°F)
Dewpoint: 1.0°C (34°F) [RH = 93%]
Pressure (altimeter): 29.68 inches Hg (1005.0 mb)
Winds: from the S (190 degrees) at 8 MPH (7 knots; 3.6 m/s)
Visibility: 6 or more miles (10+ km)
Ceiling: 600 feet AGL
Clouds: overcast cloud deck at 600 feet AGL
Weather: -RA  (light rain)

METAR text: EETN 190650Z 19006KT 9000 -DZ OVC005 02/01 Q1004 R08/290195 TEMPO 4000 RASN
Conditions at: EETN (TALLINN , EE) observed 0650 UTC 19 March 2019
Temperature: 2.0°C (36°F)
Dewpoint: 1.0°C (34°F) [RH = 93%]
Pressure (altimeter): 29.65 inches Hg (1004.0 mb)
Winds: from the S (190 degrees) at 7 MPH (6 knots; 3.1 m/s)
Visibility: 6 miles ( 9 km)
Ceiling: 500 feet AGL
Clouds: overcast cloud deck at 500 feet AGL
Weather: -DZ  (light drizzle)

METAR text: EETN 190620Z 22005KT 8000 -DZ OVC005 02/02 Q1004 R08/290195 TEMPO 4000 RADZ
Conditions at: EETN (TALLINN , EE) observed 0620 UTC 19 March 2019
Temperature: 2.0°C (36°F)
Dewpoint: 2.0°C (36°F) [RH = 100%]
Pressure (altimeter): 29.65 inches Hg (1004.0 mb)
Winds: from the SW (220 degrees) at 6 MPH (5 knots; 2.6 m/s)
Visibility: 5 miles ( 8 km)
Ceiling: 500 feet AGL
Clouds: overcast cloud deck at 500 feet AGL
Weather: -DZ  (light drizzle)

METAR text: EETN 190550Z 22006KT 9000 -DZ OVC005 02/02 Q1004 R08/290195 TEMPO 4000 RA
Conditions at: EETN (TALLINN , EE) observed 0550 UTC 19 March 2019
Temperature: 2.0°C (36°F)
Dewpoint: 2.0°C (36°F) [RH = 100%]
Pressure (altimeter): 29.65 inches Hg (1004.0 mb)
Winds: from the SW (220 degrees) at 7 MPH (6 knots; 3.1 m/s)
Visibility: 6 miles ( 9 km)
Ceiling: 500 feet AGL
Clouds: overcast cloud deck at 500 feet AGL
Weather: -DZ  (light drizzle)

METAR text: EETN 190520Z 20007KT 170V230 9999 SCT004 OVC008 02/02 Q1004 R08/290195 TEMPO 4000 RA
Conditions at: EETN (TALLINN , EE) observed 0520 UTC 19 March 2019
Temperature: 2.0°C (36°F)
Dewpoint: 2.0°C (36°F) [RH = 100%]
Pressure (altimeter): 29.65 inches Hg (1004.0 mb)
Winds: from the SSW (200 degrees) at 8 MPH (7 knots; 3.6 m/s)
Visibility: 6 or more miles (10+ km)
Ceiling: 800 feet AGL
Clouds: scattered clouds at 400 feet AGL
overcast cloud deck at 800 feet AGL
Weather: no significant weather observed at this time

METAR text: EETN 190450Z 17007KT 9000 -DZ BKN005 OVC015 02/02 Q1003 R08/290195 NOSIG
Conditions at: EETN (TALLINN , EE) observed 0450 UTC 19 March 2019
Temperature: 2.0°C (36°F)
Dewpoint: 2.0°C (36°F) [RH = 100%]
Pressure (altimeter): 29.62 inches Hg (1003.0 mb)
Winds: from the S (170 degrees) at 8 MPH (7 knots; 3.6 m/s)
Visibility: 6 miles ( 9 km)
Ceiling: 500 feet AGL
Clouds: broken clouds at 500 feet AGL
overcast cloud deck at 1500 feet AGL
Weather: -DZ  (light drizzle)

METAR text: EETN 190420Z 17006KT 8000 -RA OVC005 02/02 Q1003 R08/290195 NOSIG
Conditions at: EETN (TALLINN , EE) observed 0420 UTC 19 March 2019
Temperature: 2.0°C (36°F)
Dewpoint: 2.0°C (36°F) [RH = 100%]
Pressure (altimeter): 29.62 inches Hg (1003.0 mb)
Winds: from the S (170 degrees) at 7 MPH (6 knots; 3.1 m/s)
Visibility: 5 miles ( 8 km)
Ceiling: 500 feet AGL
Clouds: overcast cloud deck at 500 feet AGL
Weather: -RA  (light rain)

METAR text: EETN 190350Z 17007KT 9999 -DZ BKN006 OVC013 02/02 Q1003 R08/290195 NOSIG
Conditions at: EETN (TALLINN , EE) observed 0350 UTC 19 March 2019
Temperature: 2.0°C (36°F)
Dewpoint: 2.0°C (36°F) [RH = 100%]
Pressure (altimeter): 29.62 inches Hg (1003.0 mb)
Winds: from the S (170 degrees) at 8 MPH (7 knots; 3.6 m/s)
Visibility: 6 or more miles (10+ km)
Ceiling: 600 feet AGL
Clouds: broken clouds at 600 feet AGL
overcast cloud deck at 1300 feet AGL
Weather: -DZ  (light drizzle)

METAR text: EETN 190320Z 18006KT 9999 OVC006 02/02 Q1003 R08/290195
Conditions at: EETN (TALLINN , EE) observed 0320 UTC 19 March 2019
Temperature: 2.0°C (36°F)
Dewpoint: 2.0°C (36°F) [RH = 100%]
Pressure (altimeter): 29.62 inches Hg (1003.0 mb)
Winds: from the S (180 degrees) at 7 MPH (6 knots; 3.1 m/s)
Visibility: 6 or more miles (10+ km)
Ceiling: 600 feet AGL
Clouds: overcast cloud deck at 600 feet AGL
Weather: no significant weather observed at this time

METAR text: EETN 190250Z 17007KT 9999 -RA OVC006 02/02 Q1003 R08/290195
Conditions at: EETN (TALLINN , EE) observed 0250 UTC 19 March 2019
Temperature: 2.0°C (36°F)
Dewpoint: 2.0°C (36°F) [RH = 100%]
Pressure (altimeter): 29.62 inches Hg (1003.0 mb)
Winds: from the S (170 degrees) at 8 MPH (7 knots; 3.6 m/s)
Visibility: 6 or more miles (10+ km)
Ceiling: 600 feet AGL
Clouds: overcast cloud deck at 600 feet AGL
Weather: -RA  (light rain)

METAR text: EETN 190220Z 17009KT 9999 BKN007 OVC014 02/02 Q1002 R08/290195
Conditions at: EETN (TALLINN , EE) observed 0220 UTC 19 March 2019
Temperature: 2.0°C (36°F)
Dewpoint: 2.0°C (36°F) [RH = 100%]
Pressure (altimeter): 29.59 inches Hg (1002.0 mb)
Winds: from the S (170 degrees) at 10 MPH (9 knots; 4.6 m/s)
Visibility: 6 or more miles (10+ km)
Ceiling: 700 feet AGL
Clouds: broken clouds at 700 feet AGL
overcast cloud deck at 1400 feet AGL
Weather: no significant weather observed at this time

METAR text: EETN 190150Z 18008KT 9999 -RA BKN008 OVC016 03/02 Q1002 R08/290195
Conditions at: EETN (TALLINN , EE) observed 0150 UTC 19 March 2019
Temperature: 3.0°C (37°F)
Dewpoint: 2.0°C (36°F) [RH = 93%]
Pressure (altimeter): 29.59 inches Hg (1002.0 mb)
Winds: from the S (180 degrees) at 9 MPH (8 knots; 4.1 m/s)
Visibility: 6 or more miles (10+ km)
Ceiling: 800 feet AGL
Clouds: broken clouds at 800 feet AGL
overcast cloud deck at 1600 feet AGL
Weather: -RA  (light rain)

METAR text: EETN 190120Z 18009KT 9999 -RA OVC009 03/02 Q1002 R08/290195
Conditions at: EETN (TALLINN , EE) observed 0120 UTC 19 March 2019
Temperature: 3.0°C (37°F)
Dewpoint: 2.0°C (36°F) [RH = 93%]
Pressure (altimeter): 29.59 inches Hg (1002.0 mb)
Winds: from the S (180 degrees) at 10 MPH (9 knots; 4.6 m/s)
Visibility: 6 or more miles (10+ km)
Ceiling: 900 feet AGL
Clouds: overcast cloud deck at 900 feet AGL
Weather: -RA  (light rain)

METAR text: EETN 190050Z 17008KT 150V220 9999 -RA OVC009 03/02 Q1002 R08/290195
Conditions at: EETN (TALLINN , EE) observed 0050 UTC 19 March 2019
Temperature: 3.0°C (37°F)
Dewpoint: 2.0°C (36°F) [RH = 93%]
Pressure (altimeter): 29.59 inches Hg (1002.0 mb)
Winds: from the S (170 degrees) at 9 MPH (8 knots; 4.1 m/s)
Visibility: 6 or more miles (10+ km)
Ceiling: 900 feet AGL
Clouds: overcast cloud deck at 900 feet AGL
Weather: -RA  (light rain)

METAR text: EETN 190020Z 17009KT 9999 -RA BKN009 OVC023 03/02 Q1002 R08/290195
Conditions at: EETN (TALLINN , EE) observed 0020 UTC 19 March 2019
Temperature: 3.0°C (37°F)
Dewpoint: 2.0°C (36°F) [RH = 93%]
Pressure (altimeter): 29.59 inches Hg (1002.0 mb)
Winds: from the S (170 degrees) at 10 MPH (9 knots; 4.6 m/s)
Visibility: 6 or more miles (10+ km)
Ceiling: 900 feet AGL
Clouds: broken clouds at 900 feet AGL
overcast cloud deck at 2300 feet AGL
Weather: -RA  (light rain)

METAR text: EETN 182350Z 16008KT 9999 OVC010 03/02 Q1002 R08/290195
Conditions at: EETN (TALLINN , EE) observed 2350 UTC 18 March 2019
Temperature: 3.0°C (37°F)
Dewpoint: 2.0°C (36°F) [RH = 93%]
Pressure (altimeter): 29.59 inches Hg (1002.0 mb)
Winds: from the SSE (160 degrees) at 9 MPH (8 knots; 4.1 m/s)
Visibility: 6 or more miles (10+ km)
Ceiling: 1000 feet AGL
Clouds: overcast cloud deck at 1000 feet AGL
Weather: no significant weather observed at this time

METAR text: EETN 182320Z 16008KT 9999 -RA OVC009 02/02 Q1002 R08/290195
Conditions at: EETN (TALLINN , EE) observed 2320 UTC 18 March 2019
Temperature: 2.0°C (36°F)
Dewpoint: 2.0°C (36°F) [RH = 100%]
Pressure (altimeter): 29.59 inches Hg (1002.0 mb)
Winds: from the SSE (160 degrees) at 9 MPH (8 knots; 4.1 m/s)
Visibility: 6 or more miles (10+ km)
Ceiling: 900 feet AGL
Clouds: overcast cloud deck at 900 feet AGL
Weather: -RA  (light rain)

METAR text: EETN 182250Z 16008KT 9999 -RA BKN008 OVC015 02/02 Q1002 R08/290195
Conditions at: EETN (TALLINN , EE) observed 2250 UTC 18 March 2019
Temperature: 2.0°C (36°F)
Dewpoint: 2.0°C (36°F) [RH = 100%]
Pressure (altimeter): 29.59 inches Hg (1002.0 mb)
Winds: from the SSE (160 degrees) at 9 MPH (8 knots; 4.1 m/s)
Visibility: 6 or more miles (10+ km)
Ceiling: 800 feet AGL
Clouds: broken clouds at 800 feet AGL
overcast cloud deck at 1500 feet AGL
Weather: -RA  (light rain)

METAR text: EETN 182220Z 17010KT 9999 -RA OVC010 03/02 Q1002 R08/290195
Conditions at: EETN (TALLINN , EE) observed 2220 UTC 18 March 2019
Temperature: 3.0°C (37°F)
Dewpoint: 2.0°C (36°F) [RH = 93%]
Pressure (altimeter): 29.59 inches Hg (1002.0 mb)
Winds: from the S (170 degrees) at 12 MPH (10 knots; 5.1 m/s)
Visibility: 6 or more miles (10+ km)
Ceiling: 1000 feet AGL
Clouds: overcast cloud deck at 1000 feet AGL
Weather: -RA  (light rain)

METAR text: EETN 182150Z 17011KT 150V210 9999 -SHRA BKN010 FEW017CB 03/02 Q1002 R08/290195 NOSIG
Conditions at: EETN (TALLINN , EE) observed 2150 UTC 18 March 2019
Temperature: 3.0°C (37°F)
Dewpoint: 2.0°C (36°F) [RH = 93%]
Pressure (altimeter): 29.59 inches Hg (1002.0 mb)
Winds: from the S (170 degrees) at 13 MPH (11 knots; 5.7 m/s)
Visibility: 6 or more miles (10+ km)
Ceiling: 1000 feet AGL
Clouds: broken clouds at 1000 feet AGL
few clouds at 1700 feet AGL
Weather: -SHRA  (light rain showers)

METAR text: EETN 182120Z 17012KT 9999 -SHRA BKN011 FEW018CB 03/02 Q1002 R08/290195 NOSIG
Conditions at: EETN (TALLINN , EE) observed 2120 UTC 18 March 2019
Temperature: 3.0°C (37°F)
Dewpoint: 2.0°C (36°F) [RH = 93%]
Pressure (altimeter): 29.59 inches Hg (1002.0 mb)
Winds: from the S (170 degrees) at 14 MPH (12 knots; 6.2 m/s)
Visibility: 6 or more miles (10+ km)
Ceiling: 1100 feet AGL
Clouds: broken clouds at 1100 feet AGL
few clouds at 1800 feet AGL
Weather: -SHRA  (light rain showers)

METAR text: EETN 182050Z 18013KT 9999 -SHRA BKN013 FEW021CB 03/01 Q1002 R08/290195 NOSIG
Conditions at: EETN (TALLINN , EE) observed 2050 UTC 18 March 2019
Temperature: 3.0°C (37°F)
Dewpoint: 1.0°C (34°F) [RH = 87%]
Pressure (altimeter): 29.59 inches Hg (1002.0 mb)
Winds: from the S (180 degrees) at 15 MPH (13 knots; 6.7 m/s)
Visibility: 6 or more miles (10+ km)
Ceiling: 1300 feet AGL
Clouds: broken clouds at 1300 feet AGL
few clouds at 2100 feet AGL
Weather: -SHRA  (light rain showers)

METAR text: EETN 182020Z 18011KT 9999 -SHRA FEW019 FEW025CB BKN036 04/01 Q1001 R08/290195 NOSIG
Conditions at: EETN (TALLINN , EE) observed 2020 UTC 18 March 2019
Temperature: 4.0°C (39°F)
Dewpoint: 1.0°C (34°F) [RH = 81%]
Pressure (altimeter): 29.56 inches Hg (1001.0 mb)
Winds: from the S (180 degrees) at 13 MPH (11 knots; 5.7 m/s)
Visibility: 6 or more miles (10+ km)
Ceiling: 3600 feet AGL
Clouds: few clouds at 1900 feet AGL
few clouds at 2500 feet AGL
broken clouds at 3600 feet AGL
Weather: -SHRA  (light rain showers)

METAR text: EETN 181950Z 17010KT 9999 FEW025CB SCT037 BKN045 04/00 Q1002 R08/290195 TEMPO 4000 SHRA
Conditions at: EETN (TALLINN , EE) observed 1950 UTC 18 March 2019
Temperature: 4.0°C (39°F)
Dewpoint: 0.0°C (32°F) [RH = 75%]
Pressure (altimeter): 29.59 inches Hg (1002.0 mb)
Winds: from the S (170 degrees) at 12 MPH (10 knots; 5.1 m/s)
Visibility: 6 or more miles (10+ km)
Ceiling: 4500 feet AGL
Clouds: few clouds at 2500 feet AGL
scattered clouds at 3700 feet AGL
broken clouds at 4500 feet AGL
Weather: no significant weather observed at this time

METAR text: EETN 181920Z 18011KT 9999 -SHRA FEW017 FEW021CB OVC031 04/01 Q1002 R08/290195 TEMPO 4000 SHRA
Conditions at: EETN (TALLINN , EE) observed 1920 UTC 18 March 2019
Temperature: 4.0°C (39°F)
Dewpoint: 1.0°C (34°F) [RH = 81%]
Pressure (altimeter): 29.59 inches Hg (1002.0 mb)
Winds: from the S (180 degrees) at 13 MPH (11 knots; 5.7 m/s)
Visibility: 6 or more miles (10+ km)
Ceiling: 3100 feet AGL
Clouds: few clouds at 1700 feet AGL
few clouds at 2100 feet AGL
overcast cloud deck at 3100 feet AGL
Weather: -SHRA  (light rain showers)

METAR text: EETN 181850Z 18013KT 9999 FEW022 BKN047 04/01 Q1001 R08/290195 TEMPO SCT020CB
Conditions at: EETN (TALLINN , EE) observed 1850 UTC 18 March 2019
Temperature: 4.0°C (39°F)
Dewpoint: 1.0°C (34°F) [RH = 81%]
Pressure (altimeter): 29.56 inches Hg (1001.0 mb)
Winds: from the S (180 degrees) at 15 MPH (13 knots; 6.7 m/s)
Visibility: 6 or more miles (10+ km)
Ceiling: 4700 feet AGL
Clouds: few clouds at 2200 feet AGL
broken clouds at 4700 feet AGL
Weather: no significant weather observed at this time

METAR text: EETN 181820Z 17012KT 140V200 9999 FEW023 SCT033 BKN046 04/00 Q1001 R08/290195 TEMPO 4000 SHRA SCT020CB
Conditions at: EETN (TALLINN , EE) observed 1820 UTC 18 March 2019
Temperature: 4.0°C (39°F)
Dewpoint: 0.0°C (32°F) [RH = 75%]
Pressure (altimeter): 29.56 inches Hg (1001.0 mb)
Winds: from the S (170 degrees) at 14 MPH (12 knots; 6.2 m/s)
Visibility: 6 or more miles (10+ km)
Ceiling: 4600 feet AGL
Clouds: few clouds at 2300 feet AGL
scattered clouds at 3300 feet AGL
broken clouds at 4600 feet AGL
Weather: no significant weather observed at this time

METAR text: EETN 181750Z 18012KT 9999 FEW020CB SCT033 04/01 Q1001 R08/290195 TEMPO 4000 SHRA
Conditions at: EETN (TALLINN , EE) observed 1750 UTC 18 March 2019
Temperature: 4.0°C (39°F)
Dewpoint: 1.0°C (34°F) [RH = 81%]
Pressure (altimeter): 29.56 inches Hg (1001.0 mb)
Winds: from the S (180 degrees) at 14 MPH (12 knots; 6.2 m/s)
Visibility: 6 or more miles (10+ km)
Ceiling: at least 12,000 feet AGL
Clouds: few clouds at 2000 feet AGL
scattered clouds at 3300 feet AGL
Weather: no significant weather observed at this time

METAR text: EETN 181720Z 17008KT 9999 FEW035 03/01 Q1001 R08/290195 TEMPO SCT018CB
Conditions at: EETN (TALLINN , EE) observed 1720 UTC 18 March 2019
Temperature: 3.0°C (37°F)
Dewpoint: 1.0°C (34°F) [RH = 87%]
Pressure (altimeter): 29.56 inches Hg (1001.0 mb)
Winds: from the S (170 degrees) at 9 MPH (8 knots; 4.1 m/s)
Visibility: 6 or more miles (10+ km)
Ceiling: at least 12,000 feet AGL
Clouds: few clouds at 3500 feet AGL
Weather: no significant weather observed at this time

METAR text: EETN 181650Z 18008KT 9999 SCT030 03/01 Q1001 R08/290195 TEMPO SCT018CB
Conditions at: EETN (TALLINN , EE) observed 1650 UTC 18 March 2019
Temperature: 3.0°C (37°F)
Dewpoint: 1.0°C (34°F) [RH = 87%]
Pressure (altimeter): 29.56 inches Hg (1001.0 mb)
Winds: from the S (180 degrees) at 9 MPH (8 knots; 4.1 m/s)
Visibility: 6 or more miles (10+ km)
Ceiling: at least 12,000 feet AGL
Clouds: scattered clouds at 3000 feet AGL
Weather: no significant weather observed at this time

METAR text: EETN 181620Z 19012KT 9999 SCT023 BKN030 04/01 Q1001 R08/290195 TEMPO SCT018CB
Conditions at: EETN (TALLINN , EE) observed 1620 UTC 18 March 2019
Temperature: 4.0°C (39°F)
Dewpoint: 1.0°C (34°F) [RH = 81%]
Pressure (altimeter): 29.56 inches Hg (1001.0 mb)
Winds: from the S (190 degrees) at 14 MPH (12 knots; 6.2 m/s)
Visibility: 6 or more miles (10+ km)
Ceiling: 3000 feet AGL
Clouds: scattered clouds at 2300 feet AGL
broken clouds at 3000 feet AGL
Weather: no significant weather observed at this time

METAR text: EETN 181550Z 19011KT 9999 FEW020CB BKN032 04/01 Q1001 R08/290195 NOSIG
Conditions at: EETN (TALLINN , EE) observed 1550 UTC 18 March 2019
Temperature: 4.0°C (39°F)
Dewpoint: 1.0°C (34°F) [RH = 81%]
Pressure (altimeter): 29.56 inches Hg (1001.0 mb)
Winds: from the S (190 degrees) at 13 MPH (11 knots; 5.7 m/s)
Visibility: 6 or more miles (10+ km)
Ceiling: 3200 feet AGL
Clouds: few clouds at 2000 feet AGL
broken clouds at 3200 feet AGL
Weather: no significant weather observed at this time

Forecast for: EETN (TALLINN , EE)
Text: TAF EETN 192310Z 2000/2024 28012KT 9999 BKN012
Forecast period: 0000 to 0800 UTC 20 March 2019
Forecast type: FROM: standard forecast or significant change
Winds: from the W (280 degrees) at 14 MPH (12 knots; 6.2 m/s)
Visibility: 6 or more miles 10+ km)
Ceiling: 1200 feet AGL
Clouds: broken clouds at 1200 feet AGL
Weather: no significant weather forecast for this period
Text: TEMPO 2000/2006 BKN005
Forecast period: 0000 to 0600 UTC 20 March 2019
Forecast type: TEMPORARY: The following changes expected for less than half the time period
Visibility: missing
Ceiling: 500 feet AGL
Clouds: broken clouds at 500 feet AGL
Weather: no significant weather forecast for this period
Text: BECMG 2008/2010 21014KT
Forecast period: 0800 to 1800 UTC 20 March 2019
Forecast type: BECOMING: Conditions expected to become as follows by 1000 UTC 20 March 2019
Winds: from the SSW (210 degrees) at 16 MPH (14 knots; 7.2 m/s)
Visibility: 6 or more miles 10+ km)
Ceiling: 1200 feet AGL
Clouds: broken clouds at 1200 feet AGL
Weather: no significant weather forecast for this period
Text: PROB40
Forecast period: 1000 to 1300 UTC 20 March 2019
Forecast type: TEMPORARY: The following changes expected for less than half the time period
Winds: from the S (190 degrees) at 17 MPH (15 knots; 7.7 m/s)
gusting to 29 MPH (25 knots; 12.9 m/s)
Visibility: missing
Ceiling: unknown
Clouds: missing
Weather: no significant weather forecast for this period
Text: TEMPO 2010/2013 19015G25KT
Forecast period: 1300 to 1800 UTC 20 March 2019
Forecast type: TEMPORARY: The following changes expected for less than half the time period
Visibility: 0.93 miles (1.50 km)
Ceiling: 300 feet AGL
Clouds: broken clouds at 300 feet AGL
broken clouds at 1000 feet AGL
scattered clouds at 1500 feet AGL
Weather: SHSN SHRA  (snow showers, rain showers)
Text: TEMPO 2013/2018 1500 SHSNRA BKN003 BKN010 SCT015CB
Forecast period: 1800 UTC 20 March 2019 to 0000 UTC 21 March 2019
Forecast type: BECOMING: Conditions expected to become as follows by 2000 UTC 20 March 2019
Winds: from the W (280 degrees) at 14 MPH (12 knots; 6.2 m/s)
Visibility: 6 or more miles 10+ km)
Ceiling: 1200 feet AGL
Clouds: broken clouds at 1200 feet AGL
Weather: no significant weather forecast for this period